Flight Track Log - Related Links

Times and Time Zones

All times are in EDT time to prevent confusion due to time zone crossing. See the SKW5631 flight status page for this flight to view local times or setup timezone preferences in your user account.

Time Position Orientation Groundspeed Altitude Reporting Facility
EDT Latitude Longitude Course Direction KTS MPH feet Rate Location/Type
Tue 09:59:00 PM 37.3678 -122.0620 135° Southeast  Level Estimated
Tue 10:00:00 PM 37.2838 -121.9580 135° Southeast  Level Estimated
Tue 10:01:00 PM 37.1997 -121.8543 135° Southeast  Level Estimated
Tue 10:02:00 PM 37.1156 -121.7508 136° Southeast  Level Estimated
Tue 10:03:00 PM 37.0313 -121.6475 136° Southeast  Level Estimated
Tue 10:04:00 PM 36.9470 -121.5445 136° Southeast  Level Estimated
Tue 10:05:00 PM 36.8626 -121.4417 136° Southeast  Level Estimated
Tue 10:06:00 PM 36.7781 -121.3391 136° Southeast  Level Estimated
Tue 10:07:00 PM 36.6935 -121.2367 136° Southeast  Level Estimated
Tue 10:08:00 PM 36.6088 -121.1346 136° Southeast  Level Estimated
Tue 10:09:00 PM 36.5241 -121.0327 136° Southeast  Level Estimated
Tue 10:10:00 PM 36.4392 -120.9310 136° Southeast  Level Estimated
Tue 10:11:00 PM 36.3543 -120.8296 136° Southeast  Level Estimated
Tue 10:12:00 PM 36.2693 -120.7283 136° Southeast  Level Estimated
Tue 10:13:00 PM 36.1842 -120.6273 136° Southeast  Level Estimated
Tue 10:14:00 PM 36.0990 -120.5265 136° Southeast  Level Estimated
Tue 10:15:00 PM 36.0137 -120.4259 136° Southeast  Level Estimated
Tue 10:16:00 PM 35.9283 -120.3256 136° Southeast  Level Estimated
Tue 10:17:00 PM 35.8429 -120.2254 136° Southeast  Level Estimated
Tue 10:18:00 PM 35.7574 -120.1255 137° Southeast  Level Estimated
Tue 10:19:00 PM 35.6717 -120.0258 137° Southeast  Level Estimated
Tue 10:20:00 PM 35.5861 -119.9263 137° Southeast  Level Estimated
Tue 10:21:00 PM 35.5003 -119.8270 137° Southeast  Level Estimated
Tue 10:22:00 PM 35.4144 -119.7279 137° Southeast  Level Estimated
Tue 10:23:00 PM 35.3285 -119.6290 137° Southeast  Level Estimated
Tue 10:24:00 PM 35.2425 -119.5304 137° Southeast  Level Estimated
Tue 10:25:00 PM 35.1564 -119.4319 137° Southeast  Level Estimated
Tue 10:26:00 PM 35.0702 -119.3337 137° Southeast  Level Estimated
Tue 10:27:00 PM 34.9840 -119.2356 137° Southeast  Level Estimated
Tue 10:28:00 PM 34.8976 -119.1378 137° Southeast  Level Estimated
Tue 10:29:00 PM 34.8112 -119.0402 137° Southeast  Level Estimated
Tue 10:30:00 PM 34.7247 -118.9428 137° Southeast  Level Estimated
Tue 10:31:00 PM 34.6382 -118.8456 137° Southeast  Level Estimated
Tue 10:32:00 PM 34.5515 -118.7486 137° Southeast  Level Estimated
Tue 10:33:00 PM 34.4648 -118.6518 137° Southeast  Level Estimated
Tue 10:34:00 PM 34.3780 -118.5552 137° Southeast  Level Estimated
Tue 10:35:00 PM 34.2911 -118.4588 137° Southeast  Level Estimated
Tue 10:36:00 PM 34.2042 -118.3625 138° Southeast  Level Estimated
Tue 10:37:00 PM 34.2007 -118.3587 138° Southeast  Level Estimated
Tue 10:38:00 PM 34.2007 -118.3587 140° Southeast  Level Estimated
Tue 10:39:00 PM 34.2007 -118.3587 140° Southeast  Level Estimated
Tue 10:40:00 PM 34.2007 -118.3587 140° Southeast  Level Estimated
Tue 10:41:00 PM 34.2007 -118.3587 140° Southeast  Level Estimated
Tue 10:42:00 PM 34.2007 -118.3587 140° Southeast  Level Estimated
Tue 10:43:00 PM 34.2007 -118.3587 140° Southeast  Level Estimated
Tue 10:44:00 PM 34.2007 -118.3587 140° Southeast  Level Estimated
Tue 10:45:00 PM 34.2007 -118.3587 140° Southeast  Level Estimated
Tue 10:46:00 PM 34.2007 -118.3587 140° Southeast  Level Estimated
Tue 10:47:00 PM 34.2007 -118.3587 140° Southeast  Level Estimated
Tue 10:48:00 PM 34.2007 -118.3587 140° Southeast  Level Estimated

Login

Don't have an account? Register now (free) for customized features, flight alerts, and more!